aviador You're here:

SKCL Decoded Metar

CALI in COLOMBIA
Report Time2018-01-18 00:00:00
UTC Time2018-01-18 01:50:05
Flight Rules Old
Wind030° at 04 kt
W.Decomp.*RWY 01: 3.7 kt HW 1.6 kt RCW
W.Rank030° ranks 4
Current wind is below 030° avg. (5.0)
Visibility9999 m
Phenomena:N/A
Clouds:Few 025 Hf
Broken 100 Hf
Expected CloudBase > 800 ft AGL from Temp-Dew spread
Ceiling10,000 ft
Temp21°C (ISA +12)
Dew Point19°C (88% RH)
QNH1015 hPa
Density Alt4,846 ft
Elevation3,179 ft
Report Wrong Elevation
Raw Report
METAR SKCL 180000Z 03004KT 9999 FEW025 BKN100 21/19 A2996=

Extra information for SKCL:More info

Metar Taf Metar & Taf Last 4 Metars F.Rules Stats Wind Profile Meteogram Temp Stats Airport Information Weather charts Add Link Nearby VenuesMetar ALERT Operation Metar Decoded Social comments